Russells Point, Ohio
Current Conditions -  °F | °C
As of 3:30 AM on Sunday 23 Nov 2014 (Local Time) from KEDJ Reporting Station
Broken Clouds Broken Clouds  
Wind Chill: 40°   Ceiling: 4800
Heat Index: 45°   Visibility: 10mi
Dew Point: 37°   Wind: 8mph
Humidity: 76%   Direction: 170°S
Pressure: 30.02"   Gusts: NA
Location:  40.47°N, 83.89°W
Report Text: KEDJ 230830Z AUTO 17007KT 10SM BKN048 BKN050 07/03 A3002 RMK AO1
Loading
Personal Weather Stations






























Interactive Weather Map New forecast layout! Learn more

10-Day Weather Forecast

Advertisements
Track Severe Weather on mobile